createdAt,value
2023-04-03T00:02:28.142Z,98437.02
2023-04-03T00:06:08.111Z,98442.34
2023-04-03T00:09:43.500Z,98440.17
2023-04-03T00:13:21.211Z,98436.04
2023-04-03T00:16:59.270Z,98440.84
2023-04-03T00:20:36.803Z,98437.80
2023-04-03T00:24:14.267Z,98438.67
2023-04-03T00:28:11.091Z,98439.85
2023-04-03T00:31:54.718Z,98439.31
2023-04-03T00:35:38.521Z,98441.17
2023-04-03T00:39:19.920Z,98442.09
2023-04-03T00:43:02.279Z,98444.14
2023-04-03T00:46:43.672Z,98446.17
2023-04-03T00:50:07.518Z,98448.56
2023-04-03T00:54:07.889Z,98449.05
2023-04-03T00:57:51.903Z,98454.75
2023-04-03T01:01:21.688Z,98452.09
2023-04-03T01:04:52.852Z,98453.65
2023-04-03T01:08:50.842Z,98455.48
2023-04-03T01:12:34.720Z,98457.73
2023-04-03T01:16:16.093Z,98462.05
2023-04-03T01:20:43.564Z,98461.36
2023-04-03T01:24:17.634Z,98464.64
2023-04-03T01:27:44.074Z,98463.63
2023-04-03T01:31:29.405Z,98470.76
2023-04-03T01:34:59.526Z,98474.73
2023-04-03T01:38:37.147Z,98473.52
2023-04-03T01:42:14.769Z,98478.84
2023-04-03T01:46:11.298Z,98481.41
2023-04-03T01:49:53.379Z,98480.89
2023-04-03T01:53:34.826Z,98483.85
2023-04-03T02:10:13.515Z,98488.16
2023-04-03T02:14:08.888Z,98487.77
2023-04-03T02:17:50.579Z,98489.89
2023-04-03T02:21:14.030Z,98491.68
2023-04-03T02:24:52.832Z,98492.59
2023-04-03T02:28:29.522Z,98493.67
2023-04-03T02:32:26.373Z,98494.04
2023-04-03T02:35:59.850Z,98492.39
2023-04-03T02:39:27.228Z,98493.27
2023-04-03T02:43:04.858Z,98496.38
2023-04-03T02:47:01.431Z,98493.88
2023-04-03T02:50:24.163Z,98502.60
2023-04-03T02:54:21.238Z,98506.78
2023-04-03T02:57:50.140Z,98508.15
2023-04-03T03:01:33.480Z,98513.70
2023-04-03T03:05:05.880Z,98510.57
2023-04-03T03:09:03.911Z,98514.97
2023-04-03T03:12:46.291Z,98512.85
2023-04-03T03:16:31.000Z,98518.00
2023-04-03T03:19:53.583Z,98513.77
2023-04-03T03:23:35.654Z,98519.27
2023-04-03T03:27:09.025Z,98522.86
2023-04-03T03:30:46.770Z,98524.77
2023-04-03T03:34:44.665Z,98522.74
2023-04-03T03:38:10.959Z,98522.98
2023-04-03T03:42:08.200Z,98521.27
2023-04-03T03:45:52.859Z,98526.73
2023-04-03T03:49:17.009Z,98527.45
2023-04-03T03:53:15.230Z,98530.89
2023-04-03T03:56:39.445Z,98535.69
2023-04-03T04:00:17.259Z,98541.52
2023-04-03T04:03:55.555Z,98540.58
2023-04-03T04:07:51.368Z,98538.92
2023-04-03T04:11:33.669Z,98542.51
2023-04-03T04:15:16.575Z,98551.23
2023-04-03T04:18:48.512Z,98555.30
2023-04-03T04:22:22.407Z,98557.04
2023-04-03T04:26:00.457Z,98565.38
2023-04-03T04:29:58.087Z,98564.58
2023-04-03T04:33:45.037Z,98567.84
2023-04-03T04:37:10.386Z,98567.00
2023-04-03T04:41:06.872Z,98573.13
2023-04-03T04:44:29.417Z,98573.72
2023-04-03T04:48:27.791Z,98575.93
2023-04-03T04:51:52.682Z,98576.61
2023-04-03T04:55:47.244Z,98578.85
2023-04-03T04:59:29.079Z,98581.61
2023-04-03T05:02:55.076Z,98580.40
2023-04-03T05:06:33.111Z,98585.68
2023-04-03T05:10:10.796Z,98588.61
2023-04-03T05:14:06.997Z,98592.17
2023-04-03T05:17:29.749Z,98597.45
2023-04-03T05:21:28.316Z,98598.80
2023-04-03T05:25:10.722Z,98599.84
2023-04-03T05:28:37.584Z,98603.55
2023-04-03T05:32:18.854Z,98603.40
2023-04-03T05:35:54.043Z,98605.64
2023-04-03T05:39:49.982Z,98609.70
2023-04-03T05:43:32.056Z,98612.37
2023-04-03T05:46:55.651Z,98613.55
2023-04-03T05:50:34.337Z,98617.02
2023-04-03T05:54:30.782Z,98615.52
2023-04-03T05:58:33.190Z,98618.56
2023-04-03T06:01:55.794Z,98627.56
2023-04-03T06:05:33.510Z,98629.77
2023-04-03T06:09:10.995Z,98630.98
2023-04-03T06:12:48.695Z,98631.65
2023-04-03T06:16:27.927Z,98638.33
2023-04-03T06:20:06.079Z,98639.50
2023-04-03T06:24:00.661Z,98648.02
2023-04-03T06:27:23.492Z,98651.45
2023-04-03T06:31:01.289Z,98657.09
2023-04-03T06:34:38.934Z,98658.98
2023-04-03T06:38:16.508Z,98662.41
2023-04-03T06:41:53.966Z,98665.43
2023-04-03T06:45:32.226Z,98664.54
2023-04-03T06:49:29.215Z,98672.14
2023-04-03T06:52:52.838Z,98673.47
2023-04-03T06:56:47.748Z,98678.38
2023-04-03T07:00:31.558Z,98678.59
2023-04-03T07:03:54.644Z,98680.11
2023-04-03T07:07:31.632Z,98683.83
2023-04-03T07:11:11.051Z,98688.18
2023-04-03T07:14:46.934Z,98688.88
2023-04-03T07:18:25.049Z,98692.60
2023-04-03T07:22:02.280Z,98694.32
2023-04-03T07:25:47.812Z,98700.90
2023-04-03T07:29:36.585Z,98704.59
2023-04-03T07:32:59.045Z,98710.14
2023-04-03T07:36:55.590Z,98712.55
2023-04-03T07:40:37.471Z,98716.23
2023-04-03T07:43:59.837Z,98718.23
2023-04-03T07:47:37.772Z,98719.17
2023-04-03T07:51:34.134Z,98719.92
2023-04-03T07:55:15.314Z,98719.66
2023-04-03T07:58:38.247Z,98717.98
2023-04-03T08:02:34.576Z,98720.69
2023-04-03T08:06:18.687Z,98720.81
2023-04-03T08:10:04.915Z,98716.98
2023-04-03T08:13:29.970Z,98717.16
2023-04-03T08:17:06.618Z,98721.52
2023-04-03T08:20:45.169Z,98722.71
2023-04-03T08:24:43.280Z,98724.43
2023-04-03T08:28:15.948Z,98725.22
2023-04-03T08:32:11.285Z,98732.23
2023-04-03T08:35:52.887Z,98734.43
2023-04-03T08:39:37.007Z,98738.30
2023-04-03T08:43:32.185Z,98739.70
2023-04-03T08:47:13.423Z,98744.52
2023-04-03T08:50:44.448Z,98739.88
2023-04-03T08:54:26.401Z,98747.08
2023-04-03T08:58:30.067Z,98751.09
2023-04-03T09:01:54.373Z,98755.98
2023-04-03T09:06:14.117Z,98755.09
2023-04-03T09:09:42.271Z,98753.91
2023-04-03T09:13:29.678Z,98749.66
2023-04-03T09:17:30.906Z,98749.24
2023-04-03T09:21:37.357Z,98749.00
2023-04-03T09:25:21.921Z,98750.81
2023-04-03T09:29:07.420Z,98745.69
2023-04-03T09:32:32.645Z,98739.27
2023-04-03T09:36:41.301Z,98744.31
2023-04-03T09:40:07.391Z,98751.48
2023-04-03T09:44:01.920Z,98760.34
2023-04-03T09:47:34.960Z,98762.20
2023-04-03T09:51:26.729Z,98761.48
2023-04-03T09:54:49.405Z,98759.71
2023-04-03T09:58:43.190Z,98764.00
2023-04-03T10:02:39.434Z,98755.92
2023-04-03T10:06:03.221Z,98762.50
2023-04-03T10:10:01.911Z,98764.44
2023-04-03T10:13:24.573Z,98758.80
2023-04-03T10:17:21.204Z,98762.34
2023-04-03T10:21:35.745Z,98759.70
2023-04-03T10:25:38.607Z,98767.03
2023-04-03T10:29:14.729Z,98761.33
2023-04-03T10:33:14.827Z,98762.33
2023-04-03T10:37:17.051Z,98772.59
2023-04-03T10:41:17.627Z,98765.97
2023-04-03T10:44:39.990Z,98761.66
2023-04-03T10:48:55.302Z,98767.40
2023-04-03T10:52:43.421Z,98762.42
2023-04-03T10:56:38.024Z,98764.74
2023-04-03T11:00:11.397Z,98757.50
2023-04-03T11:03:59.608Z,98765.00
2023-04-03T11:07:27.538Z,98761.29
2023-04-03T11:11:26.367Z,98763.84
2023-04-03T11:14:52.411Z,98767.68
2023-04-03T11:18:40.641Z,98769.30
2023-04-03T11:22:23.741Z,98772.13
2023-04-03T11:25:53.468Z,98769.88
2023-04-03T11:29:46.627Z,98771.38
2023-04-03T11:34:03.467Z,98772.67
2023-04-03T11:37:46.817Z,98765.73
2023-04-03T11:41:12.763Z,98758.01
2023-04-03T11:44:48.570Z,98747.78
2023-04-03T11:48:50.275Z,98740.62
2023-04-03T11:52:14.202Z,98743.87
2023-04-03T11:55:51.096Z,98743.19
2023-04-03T11:59:47.607Z,98745.22
2023-04-03T12:03:31.705Z,98745.51
2023-04-03T12:07:19.946Z,98750.39
2023-04-03T12:11:13.417Z,98748.24
2023-04-03T12:14:36.781Z,98749.08
2023-04-03T12:18:35.962Z,98749.48
2023-04-03T12:22:23.290Z,98752.79
2023-04-03T12:25:51.491Z,98749.86
2023-04-03T12:29:34.053Z,98747.77
2023-04-03T12:33:31.804Z,98751.73
2023-04-03T12:37:50.491Z,98748.85
2023-04-03T12:41:38.754Z,98739.83
2023-04-03T12:45:25.064Z,98747.73
2023-04-03T12:49:23.960Z,98749.43
2023-04-03T12:52:53.880Z,98742.34
2023-04-03T12:56:30.392Z,98738.00
2023-04-03T13:00:29.410Z,98737.48
2023-04-03T13:04:01.332Z,98736.73
2023-04-03T13:07:57.316Z,98728.46
2023-04-03T13:11:22.938Z,98737.71
2023-04-03T13:15:19.814Z,98734.45
2023-04-03T13:18:42.144Z,98728.45
2023-04-03T13:22:47.824Z,98733.15
2023-04-03T13:26:10.429Z,98732.71
2023-04-03T13:29:57.242Z,98736.93
2023-04-03T13:34:17.297Z,98740.04
2023-04-03T13:37:39.685Z,98741.42
2023-04-03T13:41:48.407Z,98737.16
2023-04-03T13:45:33.340Z,98729.49
2023-04-03T13:48:59.620Z,98734.82
2023-04-03T13:53:00.438Z,98744.53
2023-04-03T13:56:31.610Z,98742.30
2023-04-03T14:00:21.907Z,98744.05
2023-04-03T14:03:58.550Z,98742.58
2023-04-03T14:07:42.216Z,98736.96
2023-04-03T14:11:30.551Z,98736.02
2023-04-03T14:14:54.258Z,98742.61
2023-04-03T14:18:31.298Z,98747.16
2023-04-03T14:22:23.298Z,98743.89
2023-04-03T14:26:13.090Z,98738.90
2023-04-03T14:29:59.514Z,98735.56
2023-04-03T14:33:25.914Z,98745.89
2023-04-03T14:37:23.436Z,98747.34
2023-04-03T14:40:45.898Z,98752.05
2023-04-03T14:44:24.182Z,98745.22
2023-04-03T14:48:01.271Z,98745.73
2023-04-03T14:51:39.044Z,98750.16
2023-04-03T14:55:18.545Z,98744.27
2023-04-03T14:59:15.101Z,98742.48
2023-04-03T15:02:40.280Z,98751.58
2023-04-03T15:06:16.128Z,98751.70
2023-04-03T15:09:53.405Z,98753.01
2023-04-03T15:13:49.670Z,98750.23
2023-04-03T15:17:24.858Z,98746.52
2023-04-03T15:20:50.178Z,98744.34
2023-04-03T15:24:28.295Z,98751.18
2023-04-03T15:28:05.466Z,98754.47
2023-04-03T15:31:42.998Z,98751.32
2023-04-03T15:35:39.947Z,98749.52
2023-04-03T15:39:02.710Z,98748.01
2023-04-03T15:42:41.359Z,98750.45
2023-04-03T15:46:36.958Z,98753.14
2023-04-03T15:49:59.574Z,98749.80
2023-04-03T15:53:37.101Z,98750.68
2023-04-03T16:01:01.407Z,98755.77
2023-04-03T16:04:38.887Z,98754.29
2023-04-03T16:08:18.834Z,98751.29
2023-04-03T16:12:16.858Z,98753.55
2023-04-03T16:15:58.398Z,98752.67
2023-04-03T16:19:42.058Z,98755.48
2023-04-03T16:23:08.744Z,98757.63
2023-04-03T16:26:44.128Z,98763.40
2023-04-03T16:30:43.348Z,98764.47
2023-04-03T16:34:06.034Z,98764.61
2023-04-03T16:38:02.647Z,98769.79
2023-04-03T16:41:25.511Z,98767.48
2023-04-03T16:45:06.287Z,98766.44
2023-04-03T16:48:59.695Z,98765.84
2023-04-03T16:52:22.291Z,98768.14
2023-04-03T16:56:19.038Z,98763.91
2023-04-03T16:59:42.288Z,98771.00
2023-04-03T17:03:20.377Z,98772.97
2023-04-03T17:07:16.536Z,98770.79
2023-04-03T17:10:40.432Z,98773.95
2023-04-03T17:14:36.715Z,98775.39
2023-04-03T17:18:00.477Z,98781.42
2023-04-03T17:21:39.066Z,98780.23
2023-04-03T17:25:16.711Z,98782.03
2023-04-03T17:28:54.298Z,98788.41
2023-04-03T17:32:30.739Z,98792.33
2023-04-03T17:36:08.686Z,98796.47
2023-04-03T17:39:48.671Z,98799.42
2023-04-03T17:43:42.416Z,98802.67
2023-04-03T17:47:06.595Z,98805.96
2023-04-03T17:50:44.690Z,98803.77
2023-04-03T17:54:22.829Z,98802.33
2023-04-03T17:58:18.838Z,98805.25
2023-04-03T18:02:02.585Z,98807.84
2023-04-03T18:05:45.611Z,98803.27
2023-04-03T18:09:32.693Z,98807.55
2023-04-03T18:13:16.112Z,98806.40
2023-04-03T18:16:40.180Z,98804.40
2023-04-03T18:20:36.696Z,98805.77
2023-04-03T18:24:02.966Z,98809.04
2023-04-03T18:27:59.761Z,98807.33
2023-04-03T18:31:26.253Z,98811.82
2023-04-03T18:35:01.027Z,98809.99
2023-04-03T18:38:39.270Z,98809.85
2023-04-03T18:42:21.059Z,98813.27
2023-04-03T18:46:12.873Z,98811.73
2023-04-03T18:49:39.438Z,98817.01
2023-04-03T18:53:18.016Z,98816.89
2023-04-03T18:56:51.803Z,98813.83
2023-04-03T19:00:29.455Z,98813.83
2023-04-03T19:04:09.401Z,98813.00
2023-04-03T19:08:03.684Z,98816.45
2023-04-03T19:11:29.660Z,98814.14
2023-04-03T19:15:24.865Z,98816.88
2023-04-03T19:19:07.011Z,98815.69
2023-04-03T19:22:30.569Z,98815.39
2023-04-03T19:26:08.854Z,98815.43
2023-04-03T19:29:45.254Z,98818.04
2023-04-03T19:33:23.819Z,98818.05
2023-04-03T19:37:02.142Z,98814.80
2023-04-03T19:40:45.670Z,98812.44
2023-04-03T19:44:35.907Z,98810.94
2023-04-03T19:48:01.767Z,98808.46
2023-04-03T19:51:57.073Z,98811.95
2023-04-03T19:55:21.667Z,98810.34
2023-04-03T19:58:57.769Z,98810.08
2023-04-03T20:02:35.030Z,98808.40
2023-04-03T20:06:12.849Z,98810.30
2023-04-03T20:09:50.499Z,98808.50
2023-04-03T20:13:28.189Z,98805.80
2023-04-03T20:17:24.636Z,98804.77
2023-04-03T20:20:55.813Z,98804.31
2023-04-03T20:24:28.781Z,98803.73
2023-04-03T20:28:02.275Z,98805.82
2023-04-03T20:31:42.187Z,98802.87
2023-04-03T20:35:20.577Z,98798.09
2023-04-03T20:38:55.699Z,98796.83
2023-04-03T20:42:33.529Z,98795.27
2023-04-03T20:46:42.187Z,98793.13
2023-04-03T20:50:12.172Z,98798.48
2023-04-03T20:53:50.180Z,98797.35
2023-04-03T20:57:54.208Z,98803.34
2023-04-03T21:01:29.391Z,98805.04
2023-04-03T21:04:57.636Z,98806.61
2023-04-03T21:09:29.830Z,98806.79
2023-04-03T21:13:31.669Z,98808.70
2023-04-03T21:16:59.186Z,98811.80
2023-04-03T21:20:33.912Z,98813.69
2023-04-03T21:24:30.975Z,98814.05
2023-04-03T21:27:54.733Z,98813.22
2023-04-03T21:31:58.744Z,98815.09
2023-04-03T21:35:40.163Z,98820.34
2023-04-03T21:39:03.130Z,98824.60
2023-04-03T21:42:42.180Z,98832.25
2023-04-03T21:46:37.312Z,98834.27
2023-04-03T21:50:18.559Z,98835.28
2023-04-03T21:53:41.804Z,98827.95
2023-04-03T21:57:21.123Z,98821.84
2023-04-03T22:00:56.416Z,98821.17
2023-04-03T22:04:53.818Z,98822.21
2023-04-03T22:08:16.717Z,98820.18
2023-04-03T22:12:15.094Z,98818.31
2023-04-03T22:15:43.394Z,98817.67
2023-04-03T22:19:16.120Z,98816.32
2023-04-03T22:22:53.721Z,98812.41
2023-04-03T22:26:50.456Z,98810.54
2023-04-03T22:30:32.459Z,98808.64
2023-04-03T22:33:57.351Z,98808.11
2023-04-03T22:37:34.917Z,98805.36
2023-04-03T22:41:32.209Z,98803.30
2023-04-03T22:44:57.084Z,98804.45
2023-04-03T22:48:53.267Z,98801.04
2023-04-03T22:52:16.183Z,98797.09
2023-04-03T22:55:57.701Z,98795.39
2023-04-03T22:59:31.272Z,98798.08
2023-04-03T23:03:12.383Z,98798.07
2023-04-03T23:07:05.257Z,98790.95
2023-04-03T23:10:46.930Z,98786.52
2023-04-03T23:14:28.306Z,98781.27
2023-04-03T23:18:11.863Z,98775.52
2023-04-03T23:21:34.456Z,98772.98
2023-04-03T23:25:31.373Z,98764.48
2023-04-03T23:28:56.525Z,98760.48
2023-04-03T23:32:33.006Z,98754.91
2023-04-03T23:36:29.257Z,98754.10
2023-04-03T23:54:19.986Z,98744.00
2023-04-03T23:57:43.095Z,98738.29
